ENOV/HOV METAR and TAF weather

Enter ICAO airport designator
Station Type Date Time Source
ENOV METAR 2019/08/22 08:50 UTC NOAA

ENOV 220850Z VRB03KT 9999 -RA FEW040 BKN055 13/08 Q1012 RMK WIND 2175FT 13022KT


Station Type Date Time Source
ENOV Decoded METAR 2019/08/22 08:50 UTC NOAA

Station name not available
Aug 22, 2019 - 04:50 AM EDT / 2019.08.22 0850 UTC
Wind: Variable at 3 MPH (3 KT):0
Visibility: greater than 7 mile(s):0
Sky conditions: mostly cloudy
Weather: light rain
Temperature: 55 F (13 C)
Dew Point: 46 F (8 C)
Relative Humidity: 71%
Pressure (altimeter): 29.88 in. Hg (1012 hPa)
ob: ENOV 220850Z VRB03KT 9999 -RA FEW040 BKN055 13/08 Q1012 RMK WIND 2175FT 13022KT
cycle: 9

Station Type Date Time Source
ENOV TAF UTC NOAA

Error!

Example: see airport list